Airfield :







YOU CAN JOIN US ON...

 
LOGIN :

Register | Disclaimer

   EN    FR    IT 

 









Legend :    VFR   Marginal VFR   IFR   Intensive IFR   Very Intensive IFR
Visi :
Ceiling :
>= 8 km
>= 3000ft
5 to 8 km
1000 to 3000 ft
1500m to 5 km
500 to 1000 ft
800 to 1500m
200 to 500 ft
< 800m
< 200 ft
Symbols :   Thunderstorms  Fog  Heavy snow  Heavy precipitations  Wind > 20 kt






- Airport Elevation : 377 ft
- IATA code : YPS


CYPD - Port Hawkesbury

CURRENT METAR :
  • 090724Z AUTO 08005KT 040V110 2 1/4SM BR OVC004 16/15 A2990 RMK SLP128 DENSITY ALT 600FT

EXPIRED METARs :
  • 090709Z AUTO 07007KT 2 1/2SM BR OVC004 16/15 A2990 RMK SLP128 DENSITY ALT 600FT
  • 090605Z AUTO 06006KT 2 1/4SM BR BKN004 OVC013 15/15 A2992 RMK SLP134 DENSITY ALT 500FT
  • 090548Z AUTO 07007KT 3SM BR BKN006 BKN010 OVC018 15/15 A2992 RMK PCPN 0.8MM PAST HR SLP136 DENSITY ALT 500FT
  • 090543Z AUTO 06007KT 2 1/2SM BR BKN006 BKN012 OVC018 15/15 A2992 RMK PCPN 0.8MM PAST HR SLP135 DENSITY ALT 500FT
  • 090533Z AUTO 07005KT 4SM -RA BR SCT005 BKN008 BKN014 OVC020 15/15 A2992 RMK PCPN 0.8MM PAST HR SLP136 DENSITY ALT 500FT
  • 090510Z AUTO 07004KT 2 1/2SM -RA BR FEW006 BKN014 OVC019 15/15 A2994 RMK SLP141 DENSITY ALT 500FT
  • 090503Z AUTO 05005KT 2 1/2SM RA BR OVC016 15/15 A2994 RMK SLP142 DENSITY ALT 500FT
  • 090446Z AUTO 05004KT 9SM FEW003 BKN020 OVC028 15/15 A2994 RMK PCPN 1.0MM PAST HR SLP143 DENSITY ALT 500FT
  • 090441Z AUTO 06006KT 6SM -RA BR FEW003 SCT009 BKN020 OVC030 15/15 A2994 RMK PCPN 1.0MM PAST HR SLP142 DENSITY ALT 500FT

TAF N/A
CZQM FIR / North America



MET'MAP, your aeronautical weather chart ! - Copyright ORBIFLY December 2007 - Disclaimer

ORBIFLY MET'MAP TEAM :

Programming & Development : Alexandra Zaïnal
Original concept : Baudouin d'Aumeries
Technical & hardware support : Manuel Goepfert
Assistance : Marc-Olivier Méhu




SOURCES & CREDITS :

   NOAA